Time;durP1;ratioP1;P1;durP2;ratioP2;P2;SDS_P1;SDS_P2;PMS_P1;PMS_P2;Temp;Humidity;BMP_temperature;BMP_pressure;BME280_temperature;BME280_humidity;BME280_pressure;Samples;Min_cycle;Max_cycle;Signal;HPM_P1;HPM_P2
2022/08/21 00:00:37;;;;;;;21.35;12.13;;;;;;;;;;5035006;28;20257;-34
2022/08/21 00:03:05;;;;;;;23.63;12.45;;;;;;;;;;5046894;28;20049;-36
2022/08/21 00:05:32;;;;;;;23.33;13.65;;;;;;;;;;5071112;28;20357;-34
2022/08/21 00:07:57;;;;;;;25.80;12.27;;;;;;;;;;5070437;28;20478;-34
2022/08/21 00:10:22;;;;;;;25.27;13.43;;;;;;;;;;5070608;28;20016;-34
2022/08/21 00:12:48;;;;;;;26.00;13.75;;;;;;;;;;5072433;28;20066;-34
2022/08/21 00:15:15;;;;;;;33.42;13.18;;;;;;;;;;5072639;28;20028;-34
2022/08/21 00:17:41;;;;;;;23.95;12.48;;;;;;;;;;5070640;28;20467;-34
2022/08/21 00:20:08;;;;;;;24.20;13.83;;;;;;;;;;5072671;28;20024;-34
2022/08/21 00:22:33;;;;;;;24.35;12.23;;;;;;;;;;5070728;28;20260;-34
2022/08/21 00:24:59;;;;;;;24.08;12.55;;;;;;;;;;5071040;28;20032;-34
2022/08/21 00:27:24;;;;;;;17.75;11.30;;;;;;;;;;5071040;28;20052;-34
2022/08/21 00:29:49;;;;;;;20.13;12.40;;;;;;;;;;5071735;28;20025;-34
2022/08/21 00:32:19;;;;;;;21.23;12.75;;;;;;;;;;5070476;28;20578;-34
2022/08/21 00:34:44;;;;;;;22.95;12.35;;;;;;;;;;5071710;28;20491;-35
2022/08/21 00:37:09;;;;;;;24.42;11.68;;;;;;;;;;5070658;28;20031;-34
2022/08/21 00:39:35;;;;;;;24.42;12.15;;;;;;;;;;5070622;28;20028;-34
2022/08/21 00:42:00;;;;;;;20.75;12.40;;;;;;;;;;5071602;28;20021;-36
2022/08/21 00:44:25;;;;;;;22.23;11.77;;;;;;;;;;5071616;28;20388;-35
2022/08/21 00:46:51;;;;;;;19.87;13.77;;;;;;;;;;5071883;28;20091;-34
2022/08/21 00:49:17;;;;;;;19.87;12.27;;;;;;;;;;5071791;28;20237;-34
2022/08/21 00:51:47;;;;;;;20.25;11.95;;;;;;;;;;5060429;28;20725;-34
2022/08/21 00:54:12;;;;;;;26.35;12.50;;;;;;;;;;5051922;28;20438;-34
2022/08/21 00:56:38;;;;;;;21.58;13.32;;;;;;;;;;5051804;28;20124;-34
2022/08/21 00:59:03;;;;;;;16.90;11.82;;;;;;;;;;5051478;28;20027;-34
2022/08/21 01:01:29;;;;;;;21.27;12.50;;;;;;;;;;5050068;28;20171;-34
2022/08/21 01:03:54;;;;;;;19.95;11.85;;;;;;;;;;5040556;28;20050;-34
2022/08/21 01:06:19;;;;;;;20.48;11.27;;;;;;;;;;5031593;28;20033;-34
2022/08/21 01:08:45;;;;;;;19.58;11.90;;;;;;;;;;5031187;28;20372;-34
2022/08/21 01:11:10;;;;;;;19.33;11.05;;;;;;;;;;5031423;28;20072;-40
2022/08/21 01:13:38;;;;;;;15.57;10.43;;;;;;;;;;5013966;28;20525;-35
2022/08/21 01:16:04;;;;;;;20.45;10.70;;;;;;;;;;5013992;28;20111;-34
2022/08/21 01:18:30;;;;;;;14.50;9.98;;;;;;;;;;5031140;28;20021;-35
2022/08/21 01:21:10;;;;;;;13.70;10.30;;;;;;;;;;5031249;28;20024;-34
2022/08/21 01:23:37;;;;;;;13.13;9.20;;;;;;;;;;5031493;28;20473;-34
2022/08/21 01:26:03;;;;;;;11.20;8.73;;;;;;;;;;5031478;28;20096;-36
2022/08/21 01:28:30;;;;;;;13.15;8.82;;;;;;;;;;5012946;28;20022;-34
2022/08/21 01:30:56;;;;;;;16.55;9.55;;;;;;;;;;5013534;28;20071;-34
2022/08/21 01:33:23;;;;;;;14.50;9.20;;;;;;;;;;5031040;28;20108;-34
2022/08/21 01:35:49;;;;;;;17.55;9.13;;;;;;;;;;5031765;28;20060;-34
2022/08/21 01:38:14;;;;;;;13.13;7.53;;;;;;;;;;5035296;28;20045;-34
2022/08/21 01:40:40;;;;;;;12.55;8.15;;;;;;;;;;5034631;28;20334;-35
2022/08/21 01:43:05;;;;;;;11.48;7.78;;;;;;;;;;5035026;28;20088;-35
2022/08/21 01:45:30;;;;;;;15.50;8.13;;;;;;;;;;5016998;28;20022;-34
2022/08/21 01:47:56;;;;;;;9.60;7.40;;;;;;;;;;5034913;28;20467;-34
2022/08/21 01:50:21;;;;;;;10.00;7.60;;;;;;;;;;5034910;28;20464;-34
2022/08/21 01:52:47;;;;;;;9.68;7.45;;;;;;;;;;5054176;28;20036;-36
2022/08/21 01:55:14;;;;;;;10.70;7.53;;;;;;;;;;5037457;28;20447;-34
2022/08/21 01:57:39;;;;;;;14.07;8.13;;;;;;;;;;5055585;28;20107;-34
2022/08/21 02:00:06;;;;;;;11.80;7.25;;;;;;;;;;5036878;28;20121;-34
2022/08/21 02:02:32;;;;;;;9.57;7.93;;;;;;;;;;5036891;28;20376;-34
2022/08/21 02:04:57;;;;;;;9.70;8.00;;;;;;;;;;5054093;28;20136;-35
2022/08/21 02:07:23;;;;;;;11.03;7.80;;;;;;;;;;5054512;28;20265;-34
2022/08/21 02:09:48;;;;;;;9.00;7.05;;;;;;;;;;5054602;28;20241;-35
2022/08/21 02:12:14;;;;;;;9.05;7.63;;;;;;;;;;5054851;28;20104;-34
2022/08/21 02:14:39;;;;;;;10.05;7.22;;;;;;;;;;5036608;28;20021;-34
2022/08/21 02:17:04;;;;;;;8.13;6.57;;;;;;;;;;5036853;28;20024;-34
2022/08/21 02:19:30;;;;;;;12.38;7.50;;;;;;;;;;5035929;28;20051;-35
2022/08/21 02:21:55;;;;;;;10.30;7.20;;;;;;;;;;5054101;28;20054;-34
2022/08/21 02:24:20;;;;;;;10.93;7.83;;;;;;;;;;5053887;28;20676;-35
2022/08/21 02:26:45;;;;;;;8.35;6.75;;;;;;;;;;5054548;28;20246;-34
2022/08/21 02:29:11;;;;;;;9.10;6.78;;;;;;;;;;5036555;28;20021;-35
2022/08/21 02:31:36;;;;;;;10.17;7.47;;;;;;;;;;5054233;28;20064;-35
2022/08/21 02:34:01;;;;;;;9.90;6.95;;;;;;;;;;5036231;28;20796;-34
2022/08/21 02:36:27;;;;;;;8.23;6.90;;;;;;;;;;5035756;28;20461;-35
2022/08/21 02:38:52;;;;;;;11.00;7.65;;;;;;;;;;5053933;28;20017;-35
2022/08/21 02:41:19;;;;;;;11.25;6.88;;;;;;;;;;5035749;28;20049;-34
2022/08/21 02:43:44;;;;;;;7.15;6.35;;;;;;;;;;5053797;28;20112;-34
2022/08/21 02:46:11;;;;;;;7.72;6.70;;;;;;;;;;5054032;28;20442;-37
2022/08/21 02:48:37;;;;;;;7.68;6.75;;;;;;;;;;5053237;28;20533;-34
2022/08/21 02:51:04;;;;;;;9.35;7.05;;;;;;;;;;5048514;28;20026;-34
2022/08/21 02:53:29;;;;;;;12.80;7.03;;;;;;;;;;5034184;28;20097;-35
2022/08/21 02:55:57;;;;;;;8.90;6.60;;;;;;;;;;5033616;28;20064;-34
2022/08/21 02:58:24;;;;;;;7.85;7.03;;;;;;;;;;5016202;28;20485;-34
2022/08/21 03:00:49;;;;;;;7.75;6.95;;;;;;;;;;5033813;28;20024;-36
2022/08/21 03:03:15;;;;;;;6.72;6.03;;;;;;;;;;5033538;28;20049;-35
2022/08/21 03:05:40;;;;;;;9.35;6.63;;;;;;;;;;5015665;28;20030;-35
2022/08/21 03:08:09;;;;;;;6.88;5.90;;;;;;;;;;5015921;28;20049;-34
2022/08/21 03:10:34;;;;;;;6.93;6.20;;;;;;;;;;5033908;28;20031;-34
2022/08/21 03:13:00;;;;;;;7.22;6.40;;;;;;;;;;5033840;28;20044;-38
2022/08/21 03:15:25;;;;;;;7.28;6.20;;;;;;;;;;5015278;28;20495;-34
2022/08/21 03:17:51;;;;;;;8.30;6.40;;;;;;;;;;5033060;28;20025;-36
2022/08/21 03:20:17;;;;;;;7.20;6.07;;;;;;;;;;5015470;28;20254;-37
2022/08/21 03:22:42;;;;;;;8.80;6.35;;;;;;;;;;5033124;28;20035;-34
2022/08/21 03:25:08;;;;;;;8.55;6.50;;;;;;;;;;5033587;28;20120;-34
2022/08/21 03:27:34;;;;;;;10.02;6.45;;;;;;;;;;5033191;28;20022;-34
2022/08/21 03:29:59;;;;;;;7.68;6.80;;;;;;;;;;5015668;28;20528;-34
2022/08/21 03:32:24;;;;;;;8.13;6.50;;;;;;;;;;5015629;28;20477;-34
2022/08/21 03:34:50;;;;;;;6.90;6.20;;;;;;;;;;5032481;28;20018;-37
2022/08/21 03:37:15;;;;;;;7.57;6.88;;;;;;;;;;5032655;28;20033;-35
2022/08/21 03:39:41;;;;;;;7.57;6.35;;;;;;;;;;5014842;28;20093;-34
2022/08/21 03:42:07;;;;;;;7.43;6.47;;;;;;;;;;5032754;28;20043;-34
2022/08/21 03:44:32;;;;;;;8.57;6.15;;;;;;;;;;5014768;28;20397;-34
2022/08/21 03:46:58;;;;;;;7.13;6.35;;;;;;;;;;5015499;28;20594;-34
2022/08/21 03:49:23;;;;;;;6.80;6.07;;;;;;;;;;5032448;28;20531;-34
2022/08/21 03:51:49;;;;;;;7.70;5.78;;;;;;;;;;5043822;28;20032;-34
2022/08/21 03:54:14;;;;;;;7.03;6.33;;;;;;;;;;5052698;28;20488;-34
2022/08/21 03:56:39;;;;;;;8.05;6.25;;;;;;;;;;5034599;28;20253;-34
2022/08/21 03:59:05;;;;;;;11.00;6.18;;;;;;;;;;5051934;28;20040;-34
2022/08/21 04:01:30;;;;;;;6.07;5.47;;;;;;;;;;5052305;28;20005;-34
2022/08/21 04:03:55;;;;;;;9.05;7.00;;;;;;;;;;5054147;28;20053;-34
2022/08/21 04:06:21;;;;;;;8.38;6.85;;;;;;;;;;5033994;28;20411;-34
2022/08/21 04:08:46;;;;;;;7.50;6.70;;;;;;;;;;5052284;28;20025;-37
2022/08/21 04:11:11;;;;;;;10.18;6.80;;;;;;;;;;5052579;28;20270;-38
2022/08/21 04:13:38;;;;;;;7.60;6.30;;;;;;;;;;5051873;28;20031;-36
2022/08/21 04:16:03;;;;;;;7.80;7.00;;;;;;;;;;5052169;28;20021;-34
2022/08/21 04:18:29;;;;;;;9.57;6.95;;;;;;;;;;5034062;28;20080;-36
2022/08/21 04:20:55;;;;;;;11.02;7.85;;;;;;;;;;5051892;28;20021;-34
2022/08/21 04:23:21;;;;;;;11.20;7.15;;;;;;;;;;5033761;28;20293;-34
2022/08/21 04:25:46;;;;;;;11.43;7.65;;;;;;;;;;5033812;28;20025;-35
2022/08/21 04:28:12;;;;;;;8.63;6.40;;;;;;;;;;5051979;28;20025;-34
2022/08/21 04:30:37;;;;;;;8.38;6.50;;;;;;;;;;5033796;28;20021;-34
2022/08/21 04:33:03;;;;;;;9.25;7.43;;;;;;;;;;5052034;28;20025;-34
2022/08/21 04:35:29;;;;;;;10.00;6.72;;;;;;;;;;5034177;28;20028;-36
2022/08/21 04:37:55;;;;;;;10.45;7.50;;;;;;;;;;5052341;28;20063;-34
2022/08/21 04:40:21;;;;;;;10.80;8.25;;;;;;;;;;5051921;28;20060;-34
2022/08/21 04:42:50;;;;;;;11.35;8.27;;;;;;;;;;5034049;28;20499;-35
2022/08/21 04:45:21;;;;;;;10.20;8.00;;;;;;;;;;5051788;28;20028;-34
2022/08/21 04:47:48;;;;;;;10.98;8.50;;;;;;;;;;5033311;28;20123;-34
2022/08/21 04:50:14;;;;;;;13.02;8.18;;;;;;;;;;5051322;28;20025;-34
2022/08/21 04:52:39;;;;;;;12.20;8.10;;;;;;;;;;5033136;28;20025;-34
2022/08/21 04:55:05;;;;;;;9.45;7.93;;;;;;;;;;5013744;28;20027;-34
2022/08/21 04:57:30;;;;;;;11.23;7.70;;;;;;;;;;5013839;28;20017;-34
2022/08/21 04:59:56;;;;;;;11.32;8.82;;;;;;;;;;5031023;28;20025;-34
2022/08/21 05:02:21;;;;;;;11.35;8.25;;;;;;;;;;5031665;28;20033;-34
2022/08/21 05:04:49;;;;;;;11.65;7.95;;;;;;;;;;5042411;28;20053;-35
2022/08/21 05:07:16;;;;;;;10.75;8.23;;;;;;;;;;5051520;28;20381;-34
2022/08/21 05:09:42;;;;;;;11.80;8.45;;;;;;;;;;5051786;28;20100;-34
2022/08/21 05:12:08;;;;;;;9.85;7.78;;;;;;;;;;5049334;28;20113;-34
2022/08/21 05:14:33;;;;;;;9.52;7.97;;;;;;;;;;5049933;28;20308;-34
2022/08/21 05:16:58;;;;;;;14.10;9.07;;;;;;;;;;5051268;28;20353;-35
2022/08/21 05:19:24;;;;;;;14.05;8.80;;;;;;;;;;5051244;28;20009;-34
2022/08/21 05:21:50;;;;;;;10.40;7.88;;;;;;;;;;5051114;28;20025;-35
2022/08/21 05:24:15;;;;;;;12.02;8.68;;;;;;;;;;5051008;28;20061;-34
2022/08/21 05:26:41;;;;;;;14.40;8.35;;;;;;;;;;5051454;28;20025;-36
2022/08/21 05:29:06;;;;;;;9.80;7.63;;;;;;;;;;5051133;28;20388;-34
2022/08/21 05:31:31;;;;;;;11.27;8.23;;;;;;;;;;5051368;28;20017;-34
2022/08/21 05:33:57;;;;;;;15.00;8.93;;;;;;;;;;5051201;28;20083;-35
2022/08/21 05:36:22;;;;;;;14.50;7.93;;;;;;;;;;5050021;28;20255;-35
2022/08/21 05:38:47;;;;;;;12.00;7.97;;;;;;;;;;5050393;28;20029;-34
2022/08/21 05:41:13;;;;;;;12.48;8.23;;;;;;;;;;5050152;28;20280;-36
2022/08/21 05:43:38;;;;;;;9.63;7.28;;;;;;;;;;5049527;28;20381;-36
2022/08/21 05:46:04;;;;;;;11.13;8.10;;;;;;;;;;5049521;28;20461;-36
2022/08/21 05:48:30;;;;;;;10.95;8.48;;;;;;;;;;5049739;28;20056;-36
2022/08/21 05:50:55;;;;;;;13.35;8.20;;;;;;;;;;5053743;28;20040;-34
2022/08/21 05:53:21;;;;;;;10.20;7.03;;;;;;;;;;5071073;28;20074;-35
2022/08/21 05:55:47;;;;;;;13.52;7.78;;;;;;;;;;5071168;28;20285;-35
2022/08/21 05:58:16;;;;;;;12.45;8.25;;;;;;;;;;5070728;28;20059;-34
2022/08/21 06:00:42;;;;;;;13.35;8.40;;;;;;;;;;5071478;28;20044;-36
2022/08/21 06:03:12;;;;;;;11.18;7.75;;;;;;;;;;5070065;28;20044;-35
2022/08/21 06:05:37;;;;;;;11.55;7.80;;;;;;;;;;5050394;28;20033;-37
2022/08/21 06:08:03;;;;;;;16.60;8.55;;;;;;;;;;5050778;28;20345;-34
2022/08/21 06:10:28;;;;;;;12.15;8.02;;;;;;;;;;5050458;28;20017;-35
2022/08/21 06:12:54;;;;;;;11.57;7.93;;;;;;;;;;5050943;28;20013;-34
2022/08/21 06:15:20;;;;;;;14.35;9.10;;;;;;;;;;5050317;28;20602;-35
2022/08/21 06:17:45;;;;;;;10.75;7.30;;;;;;;;;;5050758;28;20021;-34
2022/08/21 06:20:10;;;;;;;14.07;8.70;;;;;;;;;;5050801;28;20024;-34
2022/08/21 06:22:35;;;;;;;11.68;7.90;;;;;;;;;;5051097;28;20741;-35
2022/08/21 06:25:01;;;;;;;13.55;7.20;;;;;;;;;;5036203;28;20492;-34
2022/08/21 06:27:26;;;;;;;12.13;8.60;;;;;;;;;;5036513;28;20159;-36
2022/08/21 06:29:51;;;;;;;15.03;9.27;;;;;;;;;;5036103;28;20017;-34
2022/08/21 06:32:16;;;;;;;13.60;8.23;;;;;;;;;;5053900;28;20230;-36
2022/08/21 06:34:42;;;;;;;13.70;8.82;;;;;;;;;;5035809;28;20250;-34
2022/08/21 06:37:07;;;;;;;13.95;8.63;;;;;;;;;;5036437;28;20367;-34
2022/08/21 06:39:33;;;;;;;12.00;8.68;;;;;;;;;;5053605;28;20084;-34
2022/08/21 06:41:59;;;;;;;11.07;7.57;;;;;;;;;;5035914;28;20067;-34
2022/08/21 06:44:24;;;;;;;13.27;7.88;;;;;;;;;;5053900;28;20411;-34
2022/08/21 06:46:50;;;;;;;9.95;7.00;;;;;;;;;;5053929;28;20112;-34
2022/08/21 06:49:15;;;;;;;12.00;8.20;;;;;;;;;;5053576;28;20110;-35
2022/08/21 06:51:40;;;;;;;16.47;8.80;;;;;;;;;;5043800;28;20247;-34
2022/08/21 06:54:05;;;;;;;10.20;7.10;;;;;;;;;;5034153;28;20903;-34
2022/08/21 06:56:33;;;;;;;12.70;8.10;;;;;;;;;;5033535;28;20021;-34
2022/08/21 06:58:58;;;;;;;10.50;7.63;;;;;;;;;;5033541;28;20025;-34
2022/08/21 07:01:25;;;;;;;13.63;8.07;;;;;;;;;;5033958;28;20021;-34
2022/08/21 07:03:51;;;;;;;9.35;7.55;;;;;;;;;;5033483;28;20095;-34
2022/08/21 07:06:16;;;;;;;10.48;7.25;;;;;;;;;;5033473;28;20076;-35
2022/08/21 07:08:42;;;;;;;13.90;7.88;;;;;;;;;;5033646;28;20018;-34
2022/08/21 07:11:10;;;;;;;10.30;8.07;;;;;;;;;;5015874;28;20021;-34
2022/08/21 07:13:36;;;;;;;15.93;9.17;;;;;;;;;;5033302;28;20021;-35
2022/08/21 07:16:01;;;;;;;12.60;9.00;;;;;;;;;;5033367;28;20262;-34
2022/08/21 07:18:26;;;;;;;12.18;8.40;;;;;;;;;;5032809;28;20250;-36
2022/08/21 07:20:51;;;;;;;15.52;9.75;;;;;;;;;;5015269;28;20366;-33
2022/08/21 07:23:23;;;;;;;14.77;9.70;;;;;;;;;;5033198;28;20091;-35
2022/08/21 07:25:48;;;;;;;15.88;8.52;;;;;;;;;;5033593;28;20254;-33
2022/08/21 07:28:14;;;;;;;15.43;9.43;;;;;;;;;;5033532;28;20021;-34
2022/08/21 07:30:39;;;;;;;12.35;7.93;;;;;;;;;;5015692;28;20614;-35
2022/08/21 07:33:04;;;;;;;13.97;8.67;;;;;;;;;;5032516;28;20018;-35
2022/08/21 07:35:31;;;;;;;13.00;8.27;;;;;;;;;;5015158;28;20282;-34
2022/08/21 07:37:56;;;;;;;12.48;8.00;;;;;;;;;;5032806;28;20021;-34
2022/08/21 07:40:21;;;;;;;13.32;7.95;;;;;;;;;;5033229;28;20018;-34
2022/08/21 07:42:49;;;;;;;14.88;8.80;;;;;;;;;;5032797;28;20112;-34
2022/08/21 07:45:15;;;;;;;15.13;7.82;;;;;;;;;;5014682;28;20029;-34
2022/08/21 07:47:40;;;;;;;14.73;8.43;;;;;;;;;;5015124;28;20083;-34
2022/08/21 07:50:06;;;;;;;9.32;8.32;;;;;;;;;;5014626;28;20028;-34
2022/08/21 07:52:32;;;;;;;8.57;7.25;;;;;;;;;;5049664;28;20438;-35
2022/08/21 07:54:57;;;;;;;13.18;9.25;;;;;;;;;;5034500;28;20060;-34
2022/08/21 07:57:23;;;;;;;11.93;8.93;;;;;;;;;;5052933;28;20055;-34
2022/08/21 07:59:48;;;;;;;14.23;8.33;;;;;;;;;;5052262;28;20021;-38
2022/08/21 08:02:23;;;;;;;14.97;8.70;;;;;;;;;;5052354;28;20657;-34
2022/08/21 08:04:49;;;;;;;12.98;7.55;;;;;;;;;;5051726;28;20286;-35
2022/08/21 08:07:14;;;;;;;11.65;7.70;;;;;;;;;;5052501;28;20366;-35
2022/08/21 08:09:40;;;;;;;10.40;7.88;;;;;;;;;;5051889;28;20104;-34
2022/08/21 08:12:05;;;;;;;8.40;7.10;;;;;;;;;;5052573;28;20020;-34
2022/08/21 08:14:31;;;;;;;14.30;7.63;;;;;;;;;;5051566;28;20467;-35
2022/08/21 08:16:56;;;;;;;14.73;7.78;;;;;;;;;;5052196;28;20044;-35
2022/08/21 08:19:21;;;;;;;9.57;7.10;;;;;;;;;;5034288;28;20043;-34
2022/08/21 08:21:47;;;;;;;11.70;8.15;;;;;;;;;;5034332;28;20383;-34
2022/08/21 08:24:12;;;;;;;9.97;7.10;;;;;;;;;;5051829;28;20033;-35
2022/08/21 08:26:37;;;;;;;10.70;7.80;;;;;;;;;;5052079;28;20246;-34
2022/08/21 08:29:02;;;;;;;13.75;6.88;;;;;;;;;;5033902;28;20392;-34
2022/08/21 08:31:28;;;;;;;10.13;6.35;;;;;;;;;;5033998;28;20012;-34
2022/08/21 08:33:53;;;;;;;10.90;7.57;;;;;;;;;;5051791;28;20170;-36
2022/08/21 08:36:18;;;;;;;9.98;7.53;;;;;;;;;;5052291;28;20242;-35
2022/08/21 08:38:44;;;;;;;8.82;7.40;;;;;;;;;;5051712;28;20116;-33
2022/08/21 08:41:14;;;;;;;10.27;7.78;;;;;;;;;;5051720;28;20021;-35
2022/08/21 08:43:40;;;;;;;13.32;7.57;;;;;;;;;;5051163;28;20134;-35
2022/08/21 08:46:09;;;;;;;12.50;8.27;;;;;;;;;;5050852;28;20098;-34
2022/08/21 08:48:46;;;;;;;12.45;7.75;;;;;;;;;;5051367;28;20419;-34
2022/08/21 08:51:21;;;;;;;9.10;7.63;;;;;;;;;;5045538;28;20021;-34
2022/08/21 08:53:49;;;;;;;11.85;8.13;;;;;;;;;;5031475;28;20025;-35
2022/08/21 08:56:14;;;;;;;12.35;8.43;;;;;;;;;;5031687;28;20465;-32
2022/08/21 08:58:42;;;;;;;14.07;8.60;;;;;;;;;;5031298;28;20107;-32
2022/08/21 09:01:13;;;;;;;11.40;7.82;;;;;;;;;;5013552;28;20083;-33
2022/08/21 09:03:39;;;;;;;11.98;7.95;;;;;;;;;;5031398;28;20084;-33
2022/08/21 09:06:25;;;;;;;8.82;7.18;;;;;;;;;;5013750;28;20049;-33
2022/08/21 09:08:58;;;;;;;11.77;8.00;;;;;;;;;;5031011;28;20087;-35
2022/08/21 09:11:28;;;;;;;10.63;7.95;;;;;;;;;;5031550;28;20025;-34
2022/08/21 09:14:12;;;;;;;9.20;7.80;;;;;;;;;;5031319;28;20021;-34
2022/08/21 09:16:38;;;;;;;12.07;7.53;;;;;;;;;;5013527;28;20053;-36
2022/08/21 09:19:22;;;;;;;10.07;7.50;;;;;;;;;;5013328;28;20694;-35
2022/08/21 09:21:47;;;;;;;12.18;8.95;;;;;;;;;;5031214;28;20263;-35
2022/08/21 09:24:36;;;;;;;12.67;7.43;;;;;;;;;;5013184;28;20044;-34
2022/08/21 09:27:05;;;;;;;18.65;10.40;;;;;;;;;;5005469;28;20255;-34
2022/08/21 09:29:32;;;;;;;13.48;10.65;;;;;;;;;;5013805;28;20024;-34
2022/08/21 09:31:57;;;;;;;13.25;9.80;;;;;;;;;;5030910;28;20564;-35
2022/08/21 09:34:27;;;;;;;18.02;10.93;;;;;;;;;;5031321;28;20049;-34
2022/08/21 09:36:53;;;;;;;15.15;10.13;;;;;;;;;;5030895;28;20029;-34
2022/08/21 09:39:30;;;;;;;16.73;10.45;;;;;;;;;;5031110;28;20029;-35
2022/08/21 09:42:06;;;;;;;16.73;11.68;;;;;;;;;;5031303;28;20485;-34
2022/08/21 09:44:33;;;;;;;20.38;11.82;;;;;;;;;;5013336;28;20499;-35
2022/08/21 09:46:59;;;;;;;19.70;12.27;;;;;;;;;;5031239;28;20054;-34
2022/08/21 09:49:28;;;;;;;11.43;9.35;;;;;;;;;;5030954;28;20068;-34
2022/08/21 09:51:54;;;;;;;16.75;11.80;;;;;;;;;;5025632;28;20143;-35
2022/08/21 09:54:25;;;;;;;19.52;10.60;;;;;;;;;;5033116;28;20512;-34
2022/08/21 09:59:39;;;;;;;18.83;11.80;;;;;;;;;;5054640;28;20052;-36
2022/08/21 10:02:23;;;;;;;16.10;11.93;;;;;;;;;;5037175;28;20055;-35
2022/08/21 10:04:50;;;;;;;23.15;12.25;;;;;;;;;;5054592;28;20064;-35
2022/08/21 10:07:15;;;;;;;16.55;12.60;;;;;;;;;;5054823;28;20029;-34
2022/08/21 10:09:41;;;;;;;14.25;10.75;;;;;;;;;;5054804;28;20086;-34
2022/08/21 10:12:19;;;;;;;20.73;13.13;;;;;;;;;;5036143;28;20155;-36
2022/08/21 10:14:56;;;;;;;20.42;13.25;;;;;;;;;;5054151;28;20037;-34
2022/08/21 10:17:30;;;;;;;16.88;12.32;;;;;;;;;;5036353;28;20053;-35
2022/08/21 10:20:11;;;;;;;15.35;12.93;;;;;;;;;;5054227;28;20032;-38
2022/08/21 10:22:55;;;;;;;15.85;13.63;;;;;;;;;;5053854;28;20582;-35
2022/08/21 10:25:25;;;;;;;17.73;13.75;;;;;;;;;;5054136;28;20036;-35
2022/08/21 10:28:10;;;;;;;25.42;14.77;;;;;;;;;;5036256;28;20036;-37
2022/08/21 10:30:41;;;;;;;12.82;9.90;;;;;;;;;;5036115;28;20021;-34
2022/08/21 10:33:23;;;;;;;19.20;13.77;;;;;;;;;;5054183;28;20039;-34
2022/08/21 10:35:48;;;;;;;15.75;11.90;;;;;;;;;;5054082;28;20074;-34
2022/08/21 10:38:20;;;;;;;17.47;12.43;;;;;;;;;;5036256;28;20017;-34
2022/08/21 10:41:14;;;;;;;21.88;13.48;;;;;;;;;;5054150;28;20780;-35
2022/08/21 10:43:52;;;;;;;16.08;12.43;;;;;;;;;;4949081;28;20103;-35
2022/08/21 10:46:29;;;;;;;19.08;13.20;;;;;;;;;;5035844;28;20029;-35
2022/08/21 10:48:58;;;;;;;17.40;10.68;;;;;;;;;;5036335;28;20021;-34
2022/08/21 10:51:35;;;;;;;15.03;10.70;;;;;;;;;;5046013;28;20024;-36
2022/08/21 10:54:14;;;;;;;13.35;10.90;;;;;;;;;;5016013;28;20247;-35
2022/08/21 10:56:41;;;;;;;16.17;12.10;;;;;;;;;;5033834;28;20381;-35
2022/08/21 10:59:15;;;;;;;17.55;11.52;;;;;;;;;;5015500;28;20436;-35
2022/08/21 11:01:50;;;;;;;12.95;10.73;;;;;;;;;;5033855;28;20032;-35
2022/08/21 11:04:34;;;;;;;14.77;12.07;;;;;;;;;;5031514;28;20044;-35
2022/08/21 11:07:09;;;;;;;20.63;11.95;;;;;;;;;;5053582;28;20028;-37
2022/08/21 11:09:35;;;;;;;13.43;10.75;;;;;;;;;;5052858;28;20401;-35
2022/08/21 11:12:05;;;;;;;18.30;12.30;;;;;;;;;;5053276;28;20013;-35
2022/08/21 11:14:41;;;;;;;19.52;12.57;;;;;;;;;;5051985;28;20440;-35
2022/08/21 11:17:08;;;;;;;15.85;12.18;;;;;;;;;;5052973;28;20029;-36
2022/08/21 11:19:40;;;;;;;17.90;14.05;;;;;;;;;;5053329;28;20040;-37
2022/08/21 11:22:10;;;;;;;15.98;11.60;;;;;;;;;;5053864;28;20017;-34
2022/08/21 11:25:02;;;;;;;15.95;12.00;;;;;;;;;;5051402;28;20032;-34
2022/08/21 11:27:43;;;;;;;19.80;11.68;;;;;;;;;;5048668;28;20036;-35
2022/08/21 11:30:09;;;;;;;16.15;11.40;;;;;;;;;;5052171;28;20357;-35
2022/08/21 11:32:43;;;;;;;14.57;11.52;;;;;;;;;;5052815;28;20029;-34
2022/08/21 11:35:27;;;;;;;9.13;7.63;;;;;;;;;;5051659;28;20067;-35
2022/08/21 11:38:01;;;;;;;13.90;8.80;;;;;;;;;;5051163;28;20504;-35
2022/08/21 11:40:41;;;;;;;12.95;8.80;;;;;;;;;;5051756;28;20029;-35
2022/08/21 11:43:06;;;;;;;;;;;;;;;;;;5052071;28;20083;-36
2022/08/21 11:45:41;;;;;;;15.97;10.93;;;;;;;;;;5051550;28;20360;-34
2022/08/21 11:48:06;;;;;;;14.40;11.32;;;;;;;;;;5052730;28;20072;-35
2022/08/21 11:50:31;;;;;;;14.30;11.57;;;;;;;;;;5052070;28;20452;-35
2022/08/21 11:53:04;;;;;;;18.42;12.00;;;;;;;;;;5072696;28;20532;-34
2022/08/21 11:55:39;;;;;;;19.05;12.38;;;;;;;;;;5072583;28;20033;-35
2022/08/21 11:58:11;;;;;;;18.08;13.35;;;;;;;;;;5072916;28;20031;-34
2022/08/21 12:00:45;;;;;;;13.15;11.07;;;;;;;;;;5070816;28;20123;-36
2022/08/21 12:03:15;;;;;;;13.98;10.50;;;;;;;;;;5070044;28;20211;-35
2022/08/21 12:05:42;;;;;;;16.67;13.10;;;;;;;;;;5052146;28;20058;-39
2022/08/21 12:08:12;;;;;;;18.15;13.32;;;;;;;;;;5052498;28;20068;-35
2022/08/21 12:10:39;;;;;;;15.75;12.00;;;;;;;;;;5052170;28;20025;-36
2022/08/21 12:13:21;;;;;;;20.17;13.05;;;;;;;;;;5052331;28;20025;-35
2022/08/21 12:15:46;;;;;;;16.95;12.40;;;;;;;;;;5051842;28;20025;-35
2022/08/21 12:18:23;;;;;;;14.60;9.70;;;;;;;;;;5052598;28;20033;-34
2022/08/21 12:21:00;;;;;;;15.52;11.18;;;;;;;;;;5051103;28;20257;-35
2022/08/21 12:23:27;;;;;;;16.10;11.80;;;;;;;;;;5052391;28;20028;-35
2022/08/21 12:25:59;;;;;;;15.27;12.93;;;;;;;;;;5051688;28;20013;-35
2022/08/21 12:28:25;;;;;;;15.75;12.52;;;;;;;;;;5051922;28;20053;-35
2022/08/21 12:30:51;;;;;;;13.50;11.07;;;;;;;;;;5051930;28;20600;-35
2022/08/21 12:33:22;;;;;;;14.07;10.32;;;;;;;;;;5034080;28;20025;-35
2022/08/21 12:35:49;;;;;;;12.98;9.00;;;;;;;;;;5033933;28;20056;-34
2022/08/21 12:38:19;;;;;;;15.63;10.75;;;;;;;;;;5051937;28;20017;-35
2022/08/21 12:40:50;;;;;;;14.52;9.98;;;;;;;;;;5051683;28;20017;-35
2022/08/21 12:43:21;;;;;;;15.30;11.80;;;;;;;;;;5051539;28;20021;-35
2022/08/21 12:45:48;;;;;;;13.13;9.00;;;;;;;;;;5033660;28;20444;-35
2022/08/21 12:48:26;;;;;;;7.45;6.53;;;;;;;;;;5051822;28;20021;-34
2022/08/21 12:50:52;;;;;;;11.35;9.20;;;;;;;;;;5029954;28;20048;-36
2022/08/21 12:53:27;;;;;;;11.82;8.05;;;;;;;;;;5013604;28;20025;-35
2022/08/21 12:55:59;;;;;;;10.45;7.57;;;;;;;;;;5014158;28;20076;-35
2022/08/21 12:58:24;;;;;;;10.25;8.05;;;;;;;;;;5031716;28;20036;-34
2022/08/21 13:01:10;;;;;;;12.70;7.60;;;;;;;;;;5031277;28;20021;-35
2022/08/21 13:03:36;;;;;;;9.10;7.18;;;;;;;;;;5016827;28;20745;-35
2022/08/21 13:06:03;;;;;;;10.80;7.72;;;;;;;;;;5014175;28;20526;-35
2022/08/21 13:08:29;;;;;;;9.40;6.75;;;;;;;;;;5031065;28;20476;-35
2022/08/21 13:11:00;;;;;;;10.15;7.03;;;;;;;;;;5031301;28;20040;-34
2022/08/21 13:13:27;;;;;;;10.13;5.68;;;;;;;;;;5013652;28;20362;-35
2022/08/21 13:15:57;;;;;;;7.10;5.13;;;;;;;;;;5031304;28;20385;-34
2022/08/21 13:18:27;;;;;;;9.38;6.57;;;;;;;;;;5013567;28;20022;-35
2022/08/21 13:21:02;;;;;;;11.45;6.70;;;;;;;;;;5031195;28;20025;-34
2022/08/21 13:23:28;;;;;;;8.95;6.07;;;;;;;;;;5031286;28;20108;-38
2022/08/21 13:25:55;;;;;;;10.85;6.65;;;;;;;;;;5013208;28;20105;-36
2022/08/21 13:28:20;;;;;;;10.48;6.95;;;;;;;;;;5013108;28;20455;-34
2022/08/21 13:30:47;;;;;;;15.73;7.90;;;;;;;;;;5030903;28;20018;-35
2022/08/21 13:33:14;;;;;;;17.48;8.38;;;;;;;;;;5034604;28;20026;-34
2022/08/21 13:35:46;;;;;;;14.43;8.75;;;;;;;;;;5017682;28;20025;-35
2022/08/21 13:38:12;;;;;;;12.50;9.02;;;;;;;;;;5035519;28;20037;-35
2022/08/21 13:40:45;;;;;;;13.55;8.80;;;;;;;;;;5035168;28;20021;-35
2022/08/21 13:43:15;;;;;;;11.90;7.22;;;;;;;;;;5034636;28;20030;-34
2022/08/21 13:45:43;;;;;;;14.55;7.65;;;;;;;;;;5034433;28;20415;-36
2022/08/21 13:48:08;;;;;;;15.43;8.80;;;;;;;;;;5017360;28;20448;-36
2022/08/21 13:50:35;;;;;;;12.70;9.00;;;;;;;;;;5035832;28;20108;-35
2022/08/21 13:53:02;;;;;;;13.50;9.05;;;;;;;;;;5055040;28;20250;-36
2022/08/21 13:55:35;;;;;;;18.55;9.38;;;;;;;;;;5055199;28;20448;-34
2022/08/21 13:58:01;;;;;;;14.45;9.30;;;;;;;;;;5054824;28;20021;-35
2022/08/21 14:00:28;;;;;;;12.82;8.65;;;;;;;;;;5055081;28;20024;-34
2022/08/21 14:02:59;;;;;;;13.00;8.30;;;;;;;;;;5054970;28;20415;-34
2022/08/21 14:05:25;;;;;;;16.42;8.90;;;;;;;;;;5054862;28;20395;-35
2022/08/21 14:07:57;;;;;;;12.18;8.70;;;;;;;;;;5054717;28;20444;-34
2022/08/21 14:10:23;;;;;;;13.88;8.35;;;;;;;;;;5054875;28;20017;-34
2022/08/21 14:12:50;;;;;;;12.93;8.23;;;;;;;;;;5036701;28;20070;-35
2022/08/21 14:15:17;;;;;;;12.70;8.98;;;;;;;;;;5054145;28;20024;-34
2022/08/21 14:17:43;;;;;;;15.15;9.55;;;;;;;;;;5053821;28;20476;-35
2022/08/21 14:20:10;;;;;;;18.27;9.27;;;;;;;;;;5055152;28;20025;-34
2022/08/21 14:22:40;;;;;;;14.77;9.05;;;;;;;;;;5054181;28;20032;-34
2022/08/21 14:25:15;;;;;;;13.45;8.90;;;;;;;;;;5036135;28;20091;-34
2022/08/21 14:28:04;;;;;;;16.73;9.07;;;;;;;;;;5054885;28;20017;-34
2022/08/21 14:30:31;;;;;;;16.60;10.02;;;;;;;;;;5028102;28;20052;-36
2022/08/21 14:32:57;;;;;;;16.10;8.30;;;;;;;;;;5036467;28;20024;-34
2022/08/21 14:35:22;;;;;;;14.30;8.65;;;;;;;;;;5036325;28;20021;-34